OMDM/NHD METAR and TAF weather

Enter ICAO airport designator
Station Type Date Time Source
OMDM METAR 2019/02/17 15:30 UTC NOAA

OMDM 171530Z AUTO 31005KT 8000 NCD 21/18 Q1013 A2994


Station Type Date Time Source
OMDM Decoded METAR 2019/02/17 15:30 UTC NOAA

Station name not available
Feb 17, 2019 - 10:30 AM EST / 2019.02.17 1530 UTC
Wind: from the NW (310 degrees) at 6 MPH (5 KT):0
Visibility: 4 mile(s):0
Temperature: 69 F (21 C)
Dew Point: 64 F (18 C)
Relative Humidity: 82%
Pressure (altimeter): 29.94 in. Hg (1013 hPa)
ob: OMDM 171530Z AUTO 31005KT 8000 NCD 21/18 Q1013 A2994
cycle: 15

Station Type Date Time Source
OMDM TAF 2015/04/11 18:25 UTC NOAA

TAF OMDM 111725Z 1118/1224 06005KT 7000 NSC
BECMG 1203/1205 19013KT PROB30
TEMPO 1206/1212 21008G18KT 4000 DU
BECMG 1213/1215 35010KT
BECMG 1218/1220 12009KT


Example: see airport list